createdAt,value
2022-11-08T00:01:42.935Z,17.10
2022-11-08T00:04:15.142Z,17.60
2022-11-08T00:07:03.413Z,19.90
2022-11-08T00:09:51.292Z,16.70
2022-11-08T00:12:38.483Z,13.70
2022-11-08T00:15:09.188Z,18.30
2022-11-08T00:17:37.942Z,15.50
2022-11-08T00:20:08.913Z,15.00
2022-11-08T00:22:37.547Z,19.10
2022-11-08T00:25:06.943Z,13.80
2022-11-08T00:27:35.576Z,14.80
2022-11-08T00:30:04.985Z,16.10
2022-11-08T00:32:33.651Z,16.80
2022-11-08T00:35:02.336Z,16.40
2022-11-08T00:37:30.956Z,13.30
2022-11-08T00:39:59.625Z,15.40
2022-11-08T00:42:28.303Z,14.20
2022-11-08T00:44:56.979Z,13.90
2022-11-08T00:47:25.617Z,17.50
2022-11-08T00:49:54.242Z,17.10
2022-11-08T00:52:22.930Z,13.50
2022-11-08T00:54:51.642Z,16.70
2022-11-08T00:57:22.365Z,13.20
2022-11-08T00:59:59.866Z,13.10
2022-11-08T01:02:28.537Z,16.20
2022-11-08T01:04:57.254Z,17.10
2022-11-08T01:07:25.919Z,13.90
2022-11-08T01:09:55.034Z,18.10
2022-11-08T01:12:23.749Z,14.50
2022-11-08T01:14:52.629Z,17.20
2022-11-08T01:17:21.259Z,14.30
2022-11-08T01:19:49.927Z,17.90
2022-11-08T01:22:18.605Z,16.10
2022-11-08T01:24:47.170Z,15.70
2022-11-08T01:27:15.776Z,14.90
2022-11-08T01:29:44.354Z,16.50
2022-11-08T01:32:12.973Z,18.20
2022-11-08T01:34:41.626Z,13.70
2022-11-08T01:37:10.268Z,13.50
2022-11-08T01:39:38.944Z,13.30
2022-11-08T01:42:07.620Z,15.20
2022-11-08T01:45:07.378Z,13.20
2022-11-08T01:47:36.019Z,19.60
2022-11-08T01:50:17.141Z,15.40
2022-11-08T01:52:56.024Z,11.30
2022-11-08T01:55:37.014Z,14.50
2022-11-08T01:58:14.697Z,14.10
2022-11-08T02:00:43.863Z,13.20
2022-11-08T02:03:19.009Z,17.40
2022-11-08T02:05:48.635Z,16.50
2022-11-08T02:08:37.944Z,13.90
2022-11-08T02:11:09.209Z,14.70
2022-11-08T02:13:39.440Z,14.20
2022-11-08T02:16:14.055Z,14.80
2022-11-08T02:18:45.637Z,13.70
2022-11-08T02:21:34.236Z,15.30
2022-11-08T02:24:08.632Z,12.50
2022-11-08T02:26:38.572Z,16.60
2022-11-08T02:29:35.062Z,13.80
2022-11-08T02:32:06.416Z,16.10
2022-11-08T02:34:51.556Z,14.10
2022-11-08T02:37:21.873Z,13.50
2022-11-08T02:39:50.527Z,16.10
2022-11-08T02:42:21.245Z,12.30
2022-11-08T02:44:50.124Z,13.50
2022-11-08T02:47:18.754Z,12.90
2022-11-08T02:49:53.247Z,15.40
2022-11-08T02:52:21.839Z,12.30
2022-11-08T02:54:50.430Z,13.50
2022-11-08T02:57:19.037Z,16.30
2022-11-08T02:59:49.295Z,17.10
2022-11-08T03:02:18.044Z,16.70
2022-11-08T03:04:46.749Z,13.30
2022-11-08T03:07:15.270Z,16.00
2022-11-08T03:09:43.864Z,15.30
2022-11-08T03:12:12.536Z,14.60
2022-11-08T03:14:59.087Z,16.30
2022-11-08T03:17:27.818Z,16.10
2022-11-08T03:19:56.491Z,16.20
2022-11-08T03:22:25.592Z,16.00
2022-11-08T03:24:54.232Z,17.00
2022-11-08T03:27:23.701Z,18.10
2022-11-08T03:29:52.329Z,13.10
2022-11-08T03:32:20.946Z,18.10
2022-11-08T03:34:49.587Z,16.80
2022-11-08T03:37:18.324Z,14.40
2022-11-08T03:39:47.007Z,13.60
2022-11-08T03:42:15.629Z,16.80
2022-11-08T03:44:44.329Z,16.70
2022-11-08T03:47:12.971Z,12.80
2022-11-08T03:49:41.635Z,15.90
2022-11-08T03:52:10.237Z,13.40
2022-11-08T03:54:59.118Z,16.20
2022-11-08T03:57:27.753Z,16.40
2022-11-08T03:59:56.333Z,17.20
2022-11-08T04:02:25.160Z,12.40
2022-11-08T04:04:53.842Z,13.20
2022-11-08T04:07:22.553Z,17.60
2022-11-08T04:09:51.274Z,14.40
2022-11-08T04:12:38.330Z,16.00
2022-11-08T04:15:17.044Z,15.60
2022-11-08T04:18:09.986Z,15.10
2022-11-08T04:21:44.049Z,12.40
2022-11-08T04:24:15.658Z,15.90
2022-11-08T04:26:44.343Z,16.40
2022-11-08T04:29:13.437Z,12.40
2022-11-08T04:31:42.552Z,16.10
2022-11-08T04:34:11.254Z,15.50
2022-11-08T04:36:40.145Z,21.60
2022-11-08T04:39:09.133Z,15.50
2022-11-08T04:41:37.951Z,17.30
2022-11-08T04:44:06.662Z,14.40
2022-11-08T04:46:35.324Z,19.40
2022-11-08T04:49:04.062Z,20.90
2022-11-08T04:51:34.024Z,21.10
2022-11-08T04:54:05.282Z,14.80
2022-11-08T04:56:36.333Z,17.10
2022-11-08T04:59:08.348Z,15.70
2022-11-08T05:01:40.986Z,17.00
2022-11-08T05:04:12.523Z,17.80
2022-11-08T05:06:41.120Z,16.70
2022-11-08T05:09:11.921Z,17.60
2022-11-08T05:12:11.122Z,15.90
2022-11-08T05:14:52.400Z,21.40
2022-11-08T05:17:22.944Z,13.80
2022-11-08T05:20:10.369Z,18.20
2022-11-08T05:23:02.212Z,22.10
2022-11-08T05:25:55.916Z,15.60
2022-11-08T05:28:25.334Z,14.60
2022-11-08T05:30:58.181Z,19.80
2022-11-08T05:33:28.497Z,22.80
2022-11-08T05:39:01.529Z,16.40
2022-11-08T05:41:32.517Z,14.80
2022-11-08T05:44:06.715Z,15.80
2022-11-08T05:49:10.075Z,18.80
2022-11-08T05:51:40.449Z,15.50
2022-11-08T05:54:22.808Z,16.00
2022-11-08T05:57:17.742Z,15.90
2022-11-08T06:00:00.243Z,16.50
2022-11-08T06:05:26.536Z,21.10
2022-11-08T06:08:03.333Z,16.90
2022-11-08T06:10:40.036Z,14.90
2022-11-08T06:16:19.502Z,14.60
2022-11-08T06:26:05.725Z,18.00
2022-11-08T06:28:42.079Z,20.40
2022-11-08T06:31:12.046Z,18.30
2022-11-08T06:33:43.157Z,18.20
2022-11-08T06:36:15.937Z,22.00
2022-11-08T06:38:50.315Z,21.70
2022-11-08T06:41:20.838Z,21.20
2022-11-08T06:43:50.907Z,14.70
2022-11-08T06:46:23.344Z,15.10
2022-11-08T06:48:54.488Z,20.70
2022-11-08T06:51:25.282Z,15.80
2022-11-08T06:53:56.424Z,19.60
2022-11-08T06:56:31.951Z,19.20
2022-11-08T06:59:09.699Z,16.90
2022-11-08T07:01:46.809Z,18.10
2022-11-08T07:04:19.624Z,21.00
2022-11-08T07:06:48.988Z,20.60
2022-11-08T07:09:19.087Z,16.80
2022-11-08T07:11:48.753Z,17.80
2022-11-08T07:14:23.904Z,18.50
2022-11-08T07:16:53.970Z,17.40
2022-11-08T07:19:23.615Z,18.20
2022-11-08T07:21:53.777Z,18.60
2022-11-08T07:24:23.505Z,21.10
2022-11-08T07:26:54.166Z,25.20
2022-11-08T07:29:27.590Z,22.80
2022-11-08T07:31:57.942Z,21.30
2022-11-08T07:34:27.656Z,22.50
2022-11-08T07:36:57.196Z,19.10
2022-11-08T07:39:29.501Z,21.90
2022-11-08T07:42:00.894Z,18.80
2022-11-08T07:44:34.838Z,16.30
2022-11-08T07:47:04.252Z,18.00
2022-11-08T07:49:36.122Z,17.80
2022-11-08T07:52:09.123Z,21.00
2022-11-08T07:54:38.841Z,23.20
2022-11-08T07:57:17.988Z,23.80
2022-11-08T08:00:01.400Z,17.60
2022-11-08T08:03:01.822Z,17.20
2022-11-08T08:05:41.268Z,21.60
2022-11-08T08:08:17.615Z,21.60
2022-11-08T08:10:53.098Z,16.40
2022-11-08T08:13:25.389Z,16.50
2022-11-08T08:16:05.608Z,17.30
2022-11-08T08:18:40.365Z,22.80
2022-11-08T08:21:26.403Z,21.30
2022-11-08T08:24:13.595Z,17.60
2022-11-08T08:26:45.874Z,17.80
2022-11-08T08:29:19.973Z,22.00
2022-11-08T08:31:54.346Z,19.40
2022-11-08T08:34:31.323Z,17.00
2022-11-08T08:37:04.181Z,15.00
2022-11-08T08:39:36.904Z,16.40
2022-11-08T08:42:07.793Z,26.50
2022-11-08T08:44:40.084Z,24.30
2022-11-08T08:47:09.091Z,20.60
2022-11-08T08:49:38.985Z,18.20
2022-11-08T08:52:10.537Z,17.50
2022-11-08T08:54:39.813Z,21.00
2022-11-08T08:57:10.710Z,18.10
2022-11-08T09:02:32.697Z,17.00
2022-11-08T09:05:04.569Z,19.10
2022-11-08T09:07:56.649Z,22.40
2022-11-08T09:10:39.437Z,31.90
2022-11-08T09:13:46.281Z,20.30
2022-11-08T09:16:20.762Z,18.40
2022-11-08T09:19:09.396Z,31.40
2022-11-08T09:21:44.077Z,22.10
2022-11-08T09:24:20.777Z,24.20
2022-11-08T09:27:18.791Z,20.00
2022-11-08T09:44:34.404Z,21.50
2022-11-08T09:50:48.743Z,20.20
2022-11-08T09:54:04.412Z,22.80
2022-11-08T09:56:38.646Z,18.40
2022-11-08T09:59:48.005Z,22.90
2022-11-08T10:02:37.000Z,22.10
2022-11-08T10:05:31.831Z,24.90
2022-11-08T10:08:44.775Z,21.80
2022-11-08T10:15:15.790Z,20.70
2022-11-08T10:22:21.078Z,24.80
2022-11-08T10:37:21.581Z,17.90
2022-11-08T10:40:20.991Z,19.60
2022-11-08T10:43:09.607Z,20.60
2022-11-08T10:45:55.219Z,24.90
2022-11-08T10:48:24.981Z,21.70
2022-11-08T10:50:57.802Z,23.20
2022-11-08T10:56:58.445Z,24.10
2022-11-08T11:00:34.627Z,22.30
2022-11-08T11:03:28.971Z,21.90
2022-11-08T11:06:44.841Z,21.70
2022-11-08T11:10:45.669Z,18.00
2022-11-08T13:11:28.362Z,22.60
2022-11-08T13:30:57.812Z,20.10
2022-11-08T16:47:11.392Z,39.20
2022-11-08T16:49:38.809Z,38.60
2022-11-08T16:56:04.536Z,54.50
2022-11-08T17:12:36.826Z,31.70
2022-11-08T17:15:22.635Z,35.90
2022-11-08T17:17:52.887Z,28.90
2022-11-08T17:20:23.394Z,30.60
2022-11-08T17:22:54.257Z,29.90
2022-11-08T17:25:23.532Z,35.60
2022-11-08T17:27:53.112Z,27.30
2022-11-08T17:30:26.546Z,31.80
2022-11-08T17:33:00.994Z,34.40
2022-11-08T17:35:28.476Z,33.60
2022-11-08T17:37:55.761Z,32.80
2022-11-08T17:40:23.103Z,35.20
2022-11-08T17:42:58.899Z,35.70
2022-11-08T17:45:26.661Z,37.00
2022-11-08T17:47:54.259Z,43.10
2022-11-08T17:50:22.044Z,40.00
2022-11-08T17:52:59.529Z,31.00
2022-11-08T17:55:27.308Z,32.30
2022-11-08T17:57:54.983Z,30.20
2022-11-08T18:00:22.698Z,30.20
2022-11-08T18:02:50.369Z,33.00
2022-11-08T18:05:17.660Z,44.00
2022-11-08T18:07:45.283Z,45.90
2022-11-08T18:10:13.512Z,41.60
2022-11-08T18:12:40.918Z,52.20
2022-11-08T18:15:37.802Z,48.70
2022-11-08T18:18:06.289Z,50.20
2022-11-08T18:20:35.213Z,48.40
2022-11-08T18:23:13.507Z,50.80
2022-11-08T18:25:48.873Z,45.30
2022-11-08T18:29:15.918Z,43.10
2022-11-08T18:31:44.399Z,36.40
2022-11-08T18:34:15.439Z,39.10
2022-11-08T18:36:44.038Z,40.30
2022-11-08T18:39:21.469Z,39.10
2022-11-08T18:41:49.574Z,35.70
2022-11-08T18:44:23.453Z,35.70
2022-11-08T18:47:05.213Z,31.70
2022-11-08T18:49:33.223Z,34.50
2022-11-08T18:52:01.853Z,27.70
2022-11-08T18:54:30.557Z,30.20
2022-11-08T18:56:58.588Z,36.30
2022-11-08T18:59:26.567Z,31.10
2022-11-08T19:01:54.160Z,34.20
2022-11-08T19:08:19.889Z,30.60
2022-11-08T19:11:02.666Z,43.40
2022-11-08T19:13:32.929Z,30.70
2022-11-08T19:16:12.804Z,32.20
2022-11-08T19:18:41.849Z,31.90
2022-11-08T19:21:22.462Z,30.70
2022-11-08T19:23:51.455Z,32.30
2022-11-08T19:26:22.282Z,29.10
2022-11-08T19:28:53.262Z,32.30
2022-11-08T19:31:23.785Z,34.20
2022-11-08T19:33:55.948Z,33.50
2022-11-08T19:36:28.047Z,32.10
2022-11-08T19:38:57.442Z,29.50
2022-11-08T19:41:28.812Z,33.20
2022-11-08T19:43:57.282Z,34.40
2022-11-08T19:46:28.566Z,32.40
2022-11-08T19:48:59.429Z,38.50
2022-11-08T19:51:30.728Z,35.60
2022-11-08T19:54:07.974Z,33.30
2022-11-08T19:57:06.619Z,44.50
2022-11-08T19:59:23.968Z,37.90
2022-11-08T20:01:52.096Z,36.60
2022-11-08T20:04:20.196Z,41.00
2022-11-08T20:06:47.581Z,37.60
2022-11-08T20:09:15.170Z,39.80
2022-11-08T20:11:42.424Z,56.10
2022-11-08T20:14:13.229Z,47.20
2022-11-08T20:16:43.163Z,51.20
2022-11-08T20:19:15.850Z,50.30
2022-11-08T20:21:45.550Z,47.20
2022-11-08T20:24:14.115Z,46.40
2022-11-08T20:26:43.003Z,48.20
2022-11-08T20:29:10.789Z,48.60
2022-11-08T20:31:38.811Z,57.50
2022-11-08T20:34:10.018Z,61.50
2022-11-08T20:36:38.307Z,48.30
2022-11-08T20:39:08.209Z,54.70
2022-11-08T20:41:38.277Z,51.90
2022-11-08T20:44:08.592Z,46.40
2022-11-08T20:46:37.398Z,48.70
2022-11-08T20:49:05.628Z,50.80
2022-11-08T20:51:34.066Z,52.10
2022-11-08T20:54:01.831Z,53.40
2022-11-08T20:56:29.691Z,52.80
2022-11-08T20:58:57.126Z,49.10
2022-11-08T21:01:28.736Z,47.80
2022-11-08T21:03:56.346Z,46.40
2022-11-08T21:06:26.349Z,43.50
2022-11-08T21:09:14.437Z,49.80
2022-11-08T21:11:42.992Z,47.70
2022-11-08T21:14:10.261Z,45.10
2022-11-08T21:17:06.698Z,50.10
2022-11-08T21:19:26.017Z,49.50
2022-11-08T21:22:13.351Z,45.90
2022-11-08T21:24:42.694Z,48.20
2022-11-08T21:27:10.572Z,56.60
2022-11-08T21:29:38.459Z,45.70
2022-11-08T21:32:06.527Z,51.90
2022-11-08T21:34:33.970Z,45.10
2022-11-08T21:37:01.238Z,41.80
2022-11-08T21:39:28.515Z,43.50
2022-11-08T21:41:55.851Z,44.40
2022-11-08T21:44:23.194Z,38.60
2022-11-08T21:46:50.597Z,40.20
2022-11-08T21:49:17.996Z,34.60
2022-11-08T21:51:45.327Z,47.30
2022-11-08T21:54:12.675Z,37.00
2022-11-08T21:56:40.124Z,42.20
2022-11-08T21:59:07.538Z,39.20
2022-11-08T22:01:34.942Z,38.70
2022-11-08T22:04:02.418Z,38.30
2022-11-08T22:06:29.870Z,42.10
2022-11-08T22:08:57.478Z,35.50
2022-11-08T22:11:24.859Z,33.80
2022-11-08T22:13:52.276Z,34.70
2022-11-08T22:16:19.652Z,36.80
2022-11-08T22:21:38.069Z,42.70
2022-11-08T22:24:17.797Z,38.70
2022-11-08T22:26:46.244Z,41.40
2022-11-08T22:29:14.019Z,38.60
2022-11-08T22:31:41.753Z,35.40
2022-11-08T22:34:10.446Z,38.50
2022-11-08T22:36:44.906Z,37.00
2022-11-08T22:39:15.718Z,40.30
2022-11-08T22:41:45.097Z,39.20
2022-11-08T22:44:13.566Z,33.50
2022-11-08T22:46:42.106Z,33.80
2022-11-08T22:49:11.255Z,31.40
2022-11-08T22:51:39.543Z,31.40
2022-11-08T22:54:07.415Z,35.20
2022-11-08T22:56:35.536Z,32.30
2022-11-08T22:59:04.041Z,34.50
2022-11-08T23:01:32.164Z,33.10
2022-11-08T23:03:59.838Z,36.70
2022-11-08T23:06:27.312Z,38.30
2022-11-08T23:08:55.194Z,35.50
2022-11-08T23:11:41.703Z,37.60
2022-11-08T23:14:33.745Z,36.30
2022-11-08T23:17:07.419Z,38.60
2022-11-08T23:19:53.531Z,37.60
2022-11-08T23:22:40.781Z,33.90
2022-11-08T23:25:08.697Z,38.20
2022-11-08T23:27:54.618Z,35.20
2022-11-08T23:31:21.260Z,36.00
2022-11-08T23:33:48.807Z,34.20
2022-11-08T23:36:16.490Z,39.20
2022-11-08T23:38:43.942Z,34.30
2022-11-08T23:41:30.138Z,34.30
2022-11-08T23:44:16.224Z,33.60
2022-11-08T23:46:43.811Z,37.50
2022-11-08T23:49:11.150Z,35.50
2022-11-08T23:51:38.630Z,38.30
2022-11-08T23:54:05.957Z,42.20
2022-11-08T23:56:33.497Z,32.10
2022-11-08T23:59:00.939Z,38.50
